sensor_id;sensor_type;location;lat;lon;timestamp;pressure;altitude;pressure_sealevel;temperature;humidity
59787;BME280;45672;51.612;5.536;2022-07-10T00:02:00;102585.94;;;15.96;63.03
59787;BME280;45672;51.612;5.536;2022-07-10T00:04:26;102582.00;;;15.90;62.90
59787;BME280;45672;51.612;5.536;2022-07-10T00:06:51;102590.19;;;15.89;63.24
59787;BME280;45672;51.612;5.536;2022-07-10T00:09:16;102576.78;;;15.89;63.19
59787;BME280;45672;51.612;5.536;2022-07-10T00:11:42;102583.00;;;15.89;63.20
59787;BME280;45672;51.612;5.536;2022-07-10T00:14:08;102576.63;;;15.90;62.90
59787;BME280;45672;51.612;5.536;2022-07-10T00:16:34;102577.91;;;15.86;62.72
59787;BME280;45672;51.612;5.536;2022-07-10T00:19:00;102575.00;;;15.79;62.96
59787;BME280;45672;51.612;5.536;2022-07-10T00:21:25;102571.72;;;15.76;62.96
59787;BME280;45672;51.612;5.536;2022-07-10T00:23:51;102572.31;;;15.69;63.16
59787;BME280;45672;51.612;5.536;2022-07-10T00:26:16;102563.84;;;15.64;63.39
59787;BME280;45672;51.612;5.536;2022-07-10T00:28:41;102565.84;;;15.62;63.87
59787;BME280;45672;51.612;5.536;2022-07-10T00:31:07;102576.28;;;15.65;63.65
59787;BME280;45672;51.612;5.536;2022-07-10T00:33:35;102571.22;;;15.62;63.87
59787;BME280;45672;51.612;5.536;2022-07-10T00:36:00;102566.25;;;15.58;63.84
59787;BME280;45672;51.612;5.536;2022-07-10T00:38:27;102560.66;;;15.51;64.08
59787;BME280;45672;51.612;5.536;2022-07-10T00:40:52;102553.13;;;15.55;64.01
59787;BME280;45672;51.612;5.536;2022-07-10T00:43:18;102552.31;;;15.54;64.12
59787;BME280;45672;51.612;5.536;2022-07-10T00:45:44;102556.22;;;15.60;64.15
59787;BME280;45672;51.612;5.536;2022-07-10T00:48:09;102551.47;;;15.54;64.26
59787;BME280;45672;51.612;5.536;2022-07-10T00:50:36;102554.97;;;15.54;64.54
59787;BME280;45672;51.612;5.536;2022-07-10T00:53:01;102558.50;;;15.55;64.62
59787;BME280;45672;51.612;5.536;2022-07-10T00:55:28;102555.53;;;15.58;64.28
59787;BME280;45672;51.612;5.536;2022-07-10T00:57:54;102549.63;;;15.54;64.69
59787;BME280;45672;51.612;5.536;2022-07-10T01:00:19;102538.91;;;15.44;64.87
59787;BME280;45672;51.612;5.536;2022-07-10T01:02:45;102535.97;;;15.38;65.05
59787;BME280;45672;51.612;5.536;2022-07-10T01:05:10;102541.88;;;15.41;65.25
59787;BME280;45672;51.612;5.536;2022-07-10T01:07:37;102533.00;;;15.41;65.18
59787;BME280;45672;51.612;5.536;2022-07-10T01:10:03;102530.19;;;15.42;64.94
59787;BME280;45672;51.612;5.536;2022-07-10T01:12:28;102536.09;;;15.46;65.47
59787;BME280;45672;51.612;5.536;2022-07-10T01:14:54;102524.91;;;15.50;64.97
59787;BME280;45672;51.612;5.536;2022-07-10T01:17:20;102528.59;;;15.49;65.32
59787;BME280;45672;51.612;5.536;2022-07-10T01:19:45;102523.81;;;15.43;65.17
59787;BME280;45672;51.612;5.536;2022-07-10T01:22:11;102521.25;;;15.42;65.45
59787;BME280;45672;51.612;5.536;2022-07-10T01:24:36;102512.53;;;15.40;65.42
59787;BME280;45672;51.612;5.536;2022-07-10T01:27:02;102515.91;;;15.42;65.71
59787;BME280;45672;51.612;5.536;2022-07-10T01:29:28;102514.94;;;15.33;65.61
59787;BME280;45672;51.612;5.536;2022-07-10T01:31:53;102529.25;;;15.24;66.04
59787;BME280;45672;51.612;5.536;2022-07-10T01:34:19;102521.59;;;15.19;66.01
59787;BME280;45672;51.612;5.536;2022-07-10T01:36:46;102522.47;;;15.20;66.59
59787;BME280;45672;51.612;5.536;2022-07-10T01:39:13;102525.41;;;15.16;66.69
59787;BME280;45672;51.612;5.536;2022-07-10T01:41:38;102526.44;;;15.15;66.53
59787;BME280;45672;51.612;5.536;2022-07-10T01:44:04;102527.25;;;15.16;67.01
59787;BME280;45672;51.612;5.536;2022-07-10T01:46:29;102523.88;;;15.14;67.10
59787;BME280;45672;51.612;5.536;2022-07-10T01:48:55;102522.47;;;15.20;66.73
59787;BME280;45672;51.612;5.536;2022-07-10T01:51:21;102517.94;;;15.20;66.74
59787;BME280;45672;51.612;5.536;2022-07-10T01:53:46;102524.44;;;15.17;67.01
59787;BME280;45672;51.612;5.536;2022-07-10T01:56:13;102526.88;;;15.11;67.63
59787;BME280;45672;51.612;5.536;2022-07-10T01:58:38;102520.09;;;15.07;67.35
59787;BME280;45672;51.612;5.536;2022-07-10T02:01:05;102515.84;;;15.04;67.67
59787;BME280;45672;51.612;5.536;2022-07-10T02:03:30;102509.78;;;15.02;67.82
59787;BME280;45672;51.612;5.536;2022-07-10T02:06:14;102512.59;;;15.00;67.93
59787;BME280;45672;51.612;5.536;2022-07-10T02:08:39;102512.59;;;15.00;67.93
59787;BME280;45672;51.612;5.536;2022-07-10T02:11:05;102504.44;;;14.92;68.34
59787;BME280;45672;51.612;5.536;2022-07-10T02:13:30;102505.84;;;14.96;68.19
59787;BME280;45672;51.612;5.536;2022-07-10T02:15:58;102499.94;;;14.93;68.10
59787;BME280;45672;51.612;5.536;2022-07-10T02:18:25;102508.41;;;14.88;68.62
59787;BME280;45672;51.612;5.536;2022-07-10T02:20:51;102513.06;;;14.86;68.83
59787;BME280;45672;51.612;5.536;2022-07-10T02:23:18;102511.50;;;14.83;69.04
59787;BME280;45672;51.612;5.536;2022-07-10T02:25:43;102510.94;;;14.80;68.96
59787;BME280;45672;51.612;5.536;2022-07-10T02:28:09;102509.25;;;14.79;69.25
59787;BME280;45672;51.612;5.536;2022-07-10T02:30:35;102505.00;;;14.76;69.22
59787;BME280;45672;51.612;5.536;2022-07-10T02:33:00;102507.97;;;14.73;69.19
59787;BME280;45672;51.612;5.536;2022-07-10T02:35:28;102514.75;;;14.77;69.51
59787;BME280;45672;51.612;5.536;2022-07-10T02:37:53;102510.94;;;14.80;69.51
59787;BME280;45672;51.612;5.536;2022-07-10T02:40:19;102513.63;;;14.80;69.36
59787;BME280;45672;51.612;5.536;2022-07-10T02:42:44;102507.53;;;14.78;69.47
59787;BME280;45672;51.612;5.536;2022-07-10T02:45:10;102506.56;;;14.79;69.83
59787;BME280;45672;51.612;5.536;2022-07-10T02:47:36;102499.09;;;14.73;69.65
59787;BME280;45672;51.612;5.536;2022-07-10T02:50:01;102506.72;;;14.77;70.03
59787;BME280;45672;51.612;5.536;2022-07-10T02:52:27;102503.47;;;14.74;69.70
59787;BME280;45672;51.612;5.536;2022-07-10T02:54:55;102501.34;;;14.77;69.84
59787;BME280;45672;51.612;5.536;2022-07-10T02:57:21;102501.94;;;14.71;69.91
59787;BME280;45672;51.612;5.536;2022-07-10T02:59:46;102494.59;;;14.63;69.93
59787;BME280;45672;51.612;5.536;2022-07-10T03:02:11;102487.78;;;14.59;70.31
59787;BME280;45672;51.612;5.536;2022-07-10T03:04:38;102499.38;;;14.60;70.41
59787;BME280;45672;51.612;5.536;2022-07-10T03:07:04;102494.69;;;14.52;70.78
59787;BME280;45672;51.612;5.536;2022-07-10T03:09:29;102494.41;;;14.55;70.98
59787;BME280;45672;51.612;5.536;2022-07-10T03:11:55;102488.66;;;14.50;71.02
59787;BME280;45672;51.612;5.536;2022-07-10T03:14:21;102491.19;;;14.52;71.00
59787;BME280;45672;51.612;5.536;2022-07-10T03:16:46;102490.19;;;14.53;71.17
59787;BME280;45672;51.612;5.536;2022-07-10T03:19:13;102495.81;;;14.59;71.03
59787;BME280;45672;51.612;5.536;2022-07-10T03:21:39;102490.09;;;14.64;71.17
59787;BME280;45672;51.612;5.536;2022-07-10T03:24:05;102500.09;;;14.72;70.96
59787;BME280;45672;51.612;5.536;2022-07-10T03:26:30;102498.25;;;14.72;70.65
59787;BME280;45672;51.612;5.536;2022-07-10T03:28:56;102499.09;;;14.73;71.04
59787;BME280;45672;51.612;5.536;2022-07-10T03:31:22;102494.88;;;14.80;70.94
59787;BME280;45672;51.612;5.536;2022-07-10T03:33:47;102487.38;;;14.74;70.43
59787;BME280;45672;51.612;5.536;2022-07-10T03:36:13;102484.84;;;14.72;70.64
59787;BME280;45672;51.612;5.536;2022-07-10T03:38:38;102485.84;;;14.71;70.62
59787;BME280;45672;51.612;5.536;2022-07-10T03:41:04;102471.44;;;14.72;70.57
59787;BME280;45672;51.612;5.536;2022-07-10T03:43:29;102473.44;;;14.70;70.91
59787;BME280;45672;51.612;5.536;2022-07-10T03:45:56;102469.94;;;14.70;70.89
59787;BME280;45672;51.612;5.536;2022-07-10T03:48:22;102481.19;;;14.73;70.99
59787;BME280;45672;51.612;5.536;2022-07-10T03:50:50;102479.50;;;14.72;71.19
59787;BME280;45672;51.612;5.536;2022-07-10T03:53:16;102476.25;;;14.69;71.27
59787;BME280;45672;51.612;5.536;2022-07-10T03:55:42;102473.72;;;14.67;71.43
59787;BME280;45672;51.612;5.536;2022-07-10T03:58:07;102476.13;;;14.70;71.57
59787;BME280;45672;51.612;5.536;2022-07-10T04:00:32;102475.97;;;14.72;71.74
59787;BME280;45672;51.612;5.536;2022-07-10T04:03:00;102476.25;;;14.78;71.59
59787;BME280;45672;51.612;5.536;2022-07-10T04:05:26;102473.84;;;14.85;71.45
59787;BME280;45672;51.612;5.536;2022-07-10T04:07:51;102480.75;;;14.88;71.21
59787;BME280;45672;51.612;5.536;2022-07-10T04:10:19;102484.00;;;14.91;71.12
59787;BME280;45672;51.612;5.536;2022-07-10T04:12:44;102484.53;;;14.95;71.18
59787;BME280;45672;51.612;5.536;2022-07-10T04:15:10;102479.03;;;14.96;71.03
59787;BME280;45672;51.612;5.536;2022-07-10T04:17:35;102470.44;;;14.93;71.11
59787;BME280;45672;51.612;5.536;2022-07-10T04:20:02;102464.66;;;14.88;71.40
59787;BME280;45672;51.612;5.536;2022-07-10T04:22:27;102465.53;;;14.88;71.29
59787;BME280;45672;51.612;5.536;2022-07-10T04:24:53;102476.50;;;14.95;71.24
59787;BME280;45672;51.612;5.536;2022-07-10T04:27:19;102469.72;;;15.00;70.76
59787;BME280;45672;51.612;5.536;2022-07-10T04:29:44;102477.47;;;15.04;71.09
59787;BME280;45672;51.612;5.536;2022-07-10T04:32:10;102470.41;;;15.12;70.59
59787;BME280;45672;51.612;5.536;2022-07-10T04:34:35;102473.94;;;15.13;71.01
59787;BME280;45672;51.612;5.536;2022-07-10T04:37:00;102477.88;;;15.19;70.75
59787;BME280;45672;51.612;5.536;2022-07-10T04:39:26;102483.50;;;15.25;70.26
59787;BME280;45672;51.612;5.536;2022-07-10T04:41:51;102472.19;;;15.31;70.57
59787;BME280;45672;51.612;5.536;2022-07-10T04:44:18;102479.63;;;15.38;70.11
59787;BME280;45672;51.612;5.536;2022-07-10T04:46:43;102474.84;;;15.41;70.00
59787;BME280;45672;51.612;5.536;2022-07-10T04:49:08;102480.88;;;15.43;69.92
59787;BME280;45672;51.612;5.536;2022-07-10T04:51:34;102486.97;;;15.45;69.69
59787;BME280;45672;51.612;5.536;2022-07-10T04:53:59;102484.13;;;15.47;69.63
59787;BME280;45672;51.612;5.536;2022-07-10T04:56:25;102475.38;;;15.45;69.93
59787;BME280;45672;51.612;5.536;2022-07-10T04:58:51;102469.63;;;15.40;70.07
59787;BME280;45672;51.612;5.536;2022-07-10T05:01:16;102473.84;;;15.42;69.98
59787;BME280;45672;51.612;5.536;2022-07-10T05:03:41;102480.16;;;15.51;69.97
59787;BME280;45672;51.612;5.536;2022-07-10T05:06:07;102489.84;;;15.62;69.62
59787;BME280;45672;51.612;5.536;2022-07-10T05:08:33;102492.78;;;15.68;69.51
59787;BME280;45672;51.612;5.536;2022-07-10T05:10:58;102495.03;;;15.73;69.42
59787;BME280;45672;51.612;5.536;2022-07-10T05:13:25;102496.72;;;15.74;69.13
59787;BME280;45672;51.612;5.536;2022-07-10T05:15:50;102499.25;;;15.76;69.37
59787;BME280;45672;51.612;5.536;2022-07-10T05:18:15;102495.56;;;15.77;69.32
59787;BME280;45672;51.612;5.536;2022-07-10T05:20:41;102486.97;;;15.73;69.40
59787;BME280;45672;51.612;5.536;2022-07-10T05:23:09;102485.56;;;15.79;69.39
59787;BME280;45672;51.612;5.536;2022-07-10T05:25:34;102484.97;;;15.85;69.04
59787;BME280;45672;51.612;5.536;2022-07-10T05:27:59;102477.41;;;15.98;68.77
59787;BME280;45672;51.612;5.536;2022-07-10T05:30:25;102490.81;;;15.98;68.43
59787;BME280;45672;51.612;5.536;2022-07-10T05:32:50;102492.16;;;15.84;68.83
59787;BME280;45672;51.612;5.536;2022-07-10T05:35:15;102493.03;;;15.75;69.54
59787;BME280;45672;51.612;5.536;2022-07-10T05:37:41;102489.22;;;15.78;69.57
59787;BME280;45672;51.612;5.536;2022-07-10T05:40:08;102493.03;;;15.85;69.68
59787;BME280;45672;51.612;5.536;2022-07-10T05:42:34;102490.00;;;15.98;69.01
59787;BME280;45672;51.612;5.536;2022-07-10T05:44:59;102488.53;;;16.03;69.25
59787;BME280;45672;51.612;5.536;2022-07-10T05:47:24;102494.28;;;16.09;69.11
59787;BME280;45672;51.612;5.536;2022-07-10T05:49:50;102494.53;;;16.15;68.98
59787;BME280;45672;51.612;5.536;2022-07-10T05:52:15;102490.09;;;16.24;68.43
59787;BME280;45672;51.612;5.536;2022-07-10T05:54:40;102502.78;;;16.32;68.08
59787;BME280;45672;51.612;5.536;2022-07-10T05:57:06;102496.94;;;16.36;68.08
59787;BME280;45672;51.612;5.536;2022-07-10T05:59:34;102481.91;;;16.44;67.77
59787;BME280;45672;51.612;5.536;2022-07-10T06:02:00;102481.50;;;16.38;67.68
59787;BME280;45672;51.612;5.536;2022-07-10T06:04:26;102486.19;;;16.36;67.99
59787;BME280;45672;51.612;5.536;2022-07-10T06:06:51;102482.88;;;16.43;67.88
59787;BME280;45672;51.612;5.536;2022-07-10T06:09:16;102484.44;;;16.63;68.08
59787;BME280;45672;51.612;5.536;2022-07-10T06:11:41;102487.72;;;16.93;66.79
59787;BME280;45672;51.612;5.536;2022-07-10T06:14:09;102489.63;;;17.27;64.95
59787;BME280;45672;51.612;5.536;2022-07-10T06:16:34;102487.09;;;17.60;63.62
59787;BME280;45672;51.612;5.536;2022-07-10T06:19:00;102491.56;;;17.86;63.18
59787;BME280;45672;51.612;5.536;2022-07-10T06:21:26;102488.81;;;18.04;62.49
59787;BME280;45672;51.612;5.536;2022-07-10T06:23:52;102485.81;;;18.32;61.61
59787;BME280;45672;51.612;5.536;2022-07-10T06:26:17;102480.59;;;18.38;60.70
59787;BME280;45672;51.612;5.536;2022-07-10T06:28:44;102488.72;;;18.47;60.77
59787;BME280;45672;51.612;5.536;2022-07-10T06:31:10;102479.94;;;18.61;60.09
59787;BME280;45672;51.612;5.536;2022-07-10T06:33:36;102477.91;;;18.80;59.47
59787;BME280;45672;51.612;5.536;2022-07-10T06:36:02;102483.34;;;18.96;58.58
59787;BME280;45672;51.612;5.536;2022-07-10T06:38:27;102483.66;;;19.09;58.32
59787;BME280;45672;51.612;5.536;2022-07-10T06:40:54;102487.84;;;19.20;58.10
59787;BME280;45672;51.612;5.536;2022-07-10T06:43:19;102488.84;;;19.27;57.77
59787;BME280;45672;51.612;5.536;2022-07-10T06:45:44;102491.00;;;19.40;57.40
59787;BME280;45672;51.612;5.536;2022-07-10T06:48:10;102477.75;;;19.62;56.75
59787;BME280;45672;51.612;5.536;2022-07-10T06:50:36;102488.88;;;19.67;56.55
59787;BME280;45672;51.612;5.536;2022-07-10T06:53:03;102481.09;;;19.64;56.20
59787;BME280;45672;51.612;5.536;2022-07-10T06:55:31;102483.41;;;19.75;56.15
59787;BME280;45672;51.612;5.536;2022-07-10T06:57:57;102485.13;;;19.76;56.12
59787;BME280;45672;51.612;5.536;2022-07-10T07:00:23;102476.69;;;19.79;55.62
59787;BME280;45672;51.612;5.536;2022-07-10T07:02:48;102473.03;;;19.95;55.58
59787;BME280;45672;51.612;5.536;2022-07-10T07:05:14;102484.72;;;19.96;55.00
59787;BME280;45672;51.612;5.536;2022-07-10T07:07:39;102476.44;;;19.97;55.21
59787;BME280;45672;51.612;5.536;2022-07-10T07:10:06;102482.16;;;20.26;55.04
59787;BME280;45672;51.612;5.536;2022-07-10T07:12:31;102492.09;;;20.57;53.57
59787;BME280;45672;51.612;5.536;2022-07-10T07:14:57;102482.53;;;20.69;53.10
59787;BME280;45672;51.612;5.536;2022-07-10T07:17:22;102490.88;;;20.82;52.45
59787;BME280;45672;51.612;5.536;2022-07-10T07:19:49;102489.88;;;20.98;52.34
59787;BME280;45672;51.612;5.536;2022-07-10T07:22:33;102492.59;;;21.28;51.61
59787;BME280;45672;51.612;5.536;2022-07-10T07:25:17;102488.22;;;21.57;50.53
59787;BME280;45672;51.612;5.536;2022-07-10T07:27:42;102488.97;;;21.51;50.49
59787;BME280;45672;51.612;5.536;2022-07-10T07:30:11;102496.53;;;21.11;51.43
59787;BME280;45672;51.612;5.536;2022-07-10T07:32:39;102496.06;;;20.69;52.66
59787;BME280;45672;51.612;5.536;2022-07-10T07:35:05;102499.94;;;20.43;53.53
59787;BME280;45672;51.612;5.536;2022-07-10T07:37:41;102500.91;;;20.27;54.55
59787;BME280;45672;51.612;5.536;2022-07-10T07:40:12;102498.97;;;20.13;54.94
59787;BME280;45672;51.612;5.536;2022-07-10T07:42:37;102496.22;;;20.21;55.48
59787;BME280;45672;51.612;5.536;2022-07-10T07:45:04;102499.88;;;20.28;54.75
59787;BME280;45672;51.612;5.536;2022-07-10T07:47:30;102498.16;;;20.36;54.19
59787;BME280;45672;51.612;5.536;2022-07-10T07:49:56;102498.16;;;20.36;54.22
59787;BME280;45672;51.612;5.536;2022-07-10T07:52:21;102497.69;;;20.24;54.61
59787;BME280;45672;51.612;5.536;2022-07-10T07:54:48;102500.81;;;20.12;55.24
59787;BME280;45672;51.612;5.536;2022-07-10T07:57:14;102498.91;;;19.90;55.62
59787;BME280;45672;51.612;5.536;2022-07-10T07:59:39;102498.28;;;19.71;56.22
59787;BME280;45672;51.612;5.536;2022-07-10T08:02:05;102496.31;;;19.57;56.29
59787;BME280;45672;51.612;5.536;2022-07-10T08:04:30;102488.31;;;19.40;57.11
59787;BME280;45672;51.612;5.536;2022-07-10T08:06:56;102497.06;;;19.34;57.54
59787;BME280;45672;51.612;5.536;2022-07-10T08:09:21;102493.41;;;19.19;57.94
59787;BME280;45672;51.612;5.536;2022-07-10T08:11:46;102496.44;;;19.16;58.44
59787;BME280;45672;51.612;5.536;2022-07-10T08:14:13;102497.78;;;19.11;58.38
59787;BME280;45672;51.612;5.536;2022-07-10T08:16:38;102493.25;;;19.20;58.69
59787;BME280;45672;51.612;5.536;2022-07-10T08:19:05;102492.38;;;19.28;58.36
59787;BME280;45672;51.612;5.536;2022-07-10T08:21:30;102494.25;;;19.27;57.94
59787;BME280;45672;51.612;5.536;2022-07-10T08:23:56;102493.34;;;19.43;57.73
59787;BME280;45672;51.612;5.536;2022-07-10T08:26:21;102488.09;;;19.50;57.47
59787;BME280;45672;51.612;5.536;2022-07-10T08:28:46;102494.16;;;19.52;57.56
59787;BME280;45672;51.612;5.536;2022-07-10T08:31:12;102493.50;;;19.50;57.97
59787;BME280;45672;51.612;5.536;2022-07-10T08:33:37;102491.81;;;19.41;57.95
59787;BME280;45672;51.612;5.536;2022-07-10T08:36:04;102492.03;;;19.31;58.05
59787;BME280;45672;51.612;5.536;2022-07-10T08:38:29;102485.63;;;19.24;58.63
59787;BME280;45672;51.612;5.536;2022-07-10T08:40:56;102485.16;;;19.20;58.57
59787;BME280;45672;51.612;5.536;2022-07-10T08:43:24;102486.34;;;19.18;59.07
59787;BME280;45672;51.612;5.536;2022-07-10T08:45:53;102498.47;;;19.14;59.25
59787;BME280;45672;51.612;5.536;2022-07-10T08:48:22;102491.75;;;19.09;59.56
59787;BME280;45672;51.612;5.536;2022-07-10T08:50:51;102506.06;;;19.10;59.56
59787;BME280;45672;51.612;5.536;2022-07-10T08:53:31;102494.44;;;19.09;59.71
59787;BME280;45672;51.612;5.536;2022-07-10T08:55:57;102502.53;;;19.09;59.79
59787;BME280;45672;51.612;5.536;2022-07-10T08:58:23;102500.84;;;19.08;59.76
59787;BME280;45672;51.612;5.536;2022-07-10T09:00:48;102506.94;;;18.94;60.06
59787;BME280;45672;51.612;5.536;2022-07-10T09:03:14;102506.25;;;19.00;60.17
59787;BME280;45672;51.612;5.536;2022-07-10T09:05:39;102500.19;;;18.98;59.70
59787;BME280;45672;51.612;5.536;2022-07-10T09:08:21;102504.41;;;19.01;59.67
59787;BME280;45672;51.612;5.536;2022-07-10T09:10:46;102498.84;;;19.10;59.14
59787;BME280;45672;51.612;5.536;2022-07-10T09:13:12;102492.75;;;19.17;59.37
59787;BME280;45672;51.612;5.536;2022-07-10T09:15:37;102492.38;;;19.28;59.13
59787;BME280;45672;51.612;5.536;2022-07-10T09:18:04;102488.31;;;19.32;58.80
59787;BME280;45672;51.612;5.536;2022-07-10T09:20:35;102486.09;;;19.44;58.82
59787;BME280;45672;51.612;5.536;2022-07-10T09:23:17;102480.63;;;19.60;58.12
59787;BME280;45672;51.612;5.536;2022-07-10T09:25:46;102477.00;;;19.76;57.51
59787;BME280;45672;51.612;5.536;2022-07-10T09:28:13;102478.59;;;20.02;57.00
59787;BME280;45672;51.612;5.536;2022-07-10T09:30:40;102474.28;;;20.39;56.17
59787;BME280;45672;51.612;5.536;2022-07-10T09:33:25;102476.47;;;20.67;55.71
59787;BME280;45672;51.612;5.536;2022-07-10T09:36:07;102474.16;;;20.56;55.84
59787;BME280;45672;51.612;5.536;2022-07-10T09:41:19;102478.44;;;20.50;56.10
59787;BME280;45672;51.612;5.536;2022-07-10T09:46:16;102480.16;;;20.66;55.78
59787;BME280;45672;51.612;5.536;2022-07-10T09:48:42;102467.75;;;20.95;55.15
59787;BME280;45672;51.612;5.536;2022-07-10T09:51:09;102456.94;;;21.69;53.59
59787;BME280;45672;51.612;5.536;2022-07-10T09:53:40;102464.16;;;22.64;50.32
59787;BME280;45672;51.612;5.536;2022-07-10T09:56:09;102458.78;;;22.99;49.08
59787;BME280;45672;51.612;5.536;2022-07-10T09:58:34;102457.03;;;22.56;49.45
59787;BME280;45672;51.612;5.536;2022-07-10T10:01:08;102461.56;;;21.91;50.52
59787;BME280;45672;51.612;5.536;2022-07-10T10:03:37;102461.25;;;21.34;51.99
59787;BME280;45672;51.612;5.536;2022-07-10T10:06:15;102467.59;;;21.11;53.36
59787;BME280;45672;51.612;5.536;2022-07-10T10:09:09;102464.34;;;21.61;53.50
59787;BME280;45672;51.612;5.536;2022-07-10T10:11:37;102459.22;;;22.46;50.22
59787;BME280;45672;51.612;5.536;2022-07-10T10:14:07;102466.66;;;23.57;47.63
59787;BME280;45672;51.612;5.536;2022-07-10T10:16:33;102461.88;;;24.41;45.45
59787;BME280;45672;51.612;5.536;2022-07-10T10:18:59;102464.41;;;24.69;44.54
59787;BME280;45672;51.612;5.536;2022-07-10T10:21:45;102460.63;;;24.57;44.87
59787;BME280;45672;51.612;5.536;2022-07-10T10:24:12;102459.78;;;24.43;44.15
59787;BME280;45672;51.612;5.536;2022-07-10T10:26:39;102447.50;;;23.79;45.44
59787;BME280;45672;51.612;5.536;2022-07-10T10:29:05;102451.91;;;23.31;47.30
59787;BME280;45672;51.612;5.536;2022-07-10T10:31:32;102446.66;;;22.95;47.67
59787;BME280;45672;51.612;5.536;2022-07-10T10:33:57;102450.47;;;22.72;48.72
59787;BME280;45672;51.612;5.536;2022-07-10T10:39:09;102455.41;;;22.97;48.77
59787;BME280;45672;51.612;5.536;2022-07-10T10:41:42;102461.75;;;23.39;48.45
59787;BME280;45672;51.612;5.536;2022-07-10T10:49:17;102449.13;;;24.48;44.73
59787;BME280;45672;51.612;5.536;2022-07-10T10:52:01;102450.16;;;24.74;44.99
59787;BME280;45672;51.612;5.536;2022-07-10T10:54:29;102437.19;;;24.49;44.40
59787;BME280;45672;51.612;5.536;2022-07-10T10:57:16;102440.53;;;24.78;45.50
59787;BME280;45672;51.612;5.536;2022-07-10T10:59:48;102439.06;;;24.75;43.95
59787;BME280;45672;51.612;5.536;2022-07-10T11:04:48;102426.28;;;24.22;45.63
59787;BME280;45672;51.612;5.536;2022-07-10T11:07:51;102423.34;;;24.10;46.38
59787;BME280;45672;51.612;5.536;2022-07-10T11:10:35;102430.25;;;24.06;46.63
59787;BME280;45672;51.612;5.536;2022-07-10T11:13:04;102427.09;;;24.16;45.73
59787;BME280;45672;51.612;5.536;2022-07-10T11:15:32;102437.59;;;24.33;45.17
59787;BME280;45672;51.612;5.536;2022-07-10T11:18:11;102435.47;;;24.35;44.95
59787;BME280;45672;51.612;5.536;2022-07-10T11:20:42;102429.84;;;24.09;46.25
59787;BME280;45672;51.612;5.536;2022-07-10T11:23:38;102436.72;;;24.19;46.46
59787;BME280;45672;51.612;5.536;2022-07-10T11:26:21;102431.50;;;24.17;45.47
59787;BME280;45672;51.612;5.536;2022-07-10T11:28:55;102432.13;;;24.26;45.43
59787;BME280;45672;51.612;5.536;2022-07-10T11:31:25;102433.59;;;24.15;45.78
59787;BME280;45672;51.612;5.536;2022-07-10T11:33:52;102433.38;;;23.97;45.28
59787;BME280;45672;51.612;5.536;2022-07-10T11:36:25;102434.41;;;23.96;45.76
59787;BME280;45672;51.612;5.536;2022-07-10T11:39:03;102429.66;;;24.18;45.75
59787;BME280;45672;51.612;5.536;2022-07-10T11:41:29;102422.94;;;24.20;45.20
59787;BME280;45672;51.612;5.536;2022-07-10T11:44:01;102413.53;;;24.09;45.19
59787;BME280;45672;51.612;5.536;2022-07-10T11:46:28;102413.13;;;24.19;45.63
59787;BME280;45672;51.612;5.536;2022-07-10T11:48:55;102400.13;;;24.48;45.49
59787;BME280;45672;51.612;5.536;2022-07-10T11:51:31;102413.75;;;24.75;44.94
59787;BME280;45672;51.612;5.536;2022-07-10T11:54:12;102398.25;;;24.69;44.11
59787;BME280;45672;51.612;5.536;2022-07-10T11:56:40;102404.53;;;24.69;44.22
59787;BME280;45672;51.612;5.536;2022-07-10T11:59:10;102411.66;;;24.64;44.27
59787;BME280;45672;51.612;5.536;2022-07-10T12:01:41;102411.22;;;24.26;45.09
59787;BME280;45672;51.612;5.536;2022-07-10T12:04:08;102407.44;;;23.94;45.73
59787;BME280;45672;51.612;5.536;2022-07-10T12:06:38;102409.72;;;23.90;46.15
59787;BME280;45672;51.612;5.536;2022-07-10T12:09:07;102407.84;;;23.98;46.05
59787;BME280;45672;51.612;5.536;2022-07-10T12:11:33;102409.53;;;23.99;46.31
59787;BME280;45672;51.612;5.536;2022-07-10T12:14:19;102411.53;;;23.83;46.54
59787;BME280;45672;51.612;5.536;2022-07-10T12:16:46;102413.78;;;23.66;46.38
59787;BME280;45672;51.612;5.536;2022-07-10T12:19:14;102415.56;;;23.87;46.07
59787;BME280;45672;51.612;5.536;2022-07-10T12:21:41;102420.59;;;24.10;45.52
59787;BME280;45672;51.612;5.536;2022-07-10T12:24:07;102411.00;;;24.35;45.48
59787;BME280;45672;51.612;5.536;2022-07-10T12:26:38;102416.47;;;24.68;45.03
59787;BME280;45672;51.612;5.536;2022-07-10T12:29:04;102419.59;;;24.85;44.13
59787;BME280;45672;51.612;5.536;2022-07-10T12:31:32;102410.69;;;25.17;43.75
59787;BME280;45672;51.612;5.536;2022-07-10T12:34:00;102405.41;;;25.28;42.99
59787;BME280;45672;51.612;5.536;2022-07-10T12:36:52;102411.97;;;25.14;43.61
59787;BME280;45672;51.612;5.536;2022-07-10T12:39:20;102415.41;;;24.76;43.64
59787;BME280;45672;51.612;5.536;2022-07-10T12:41:57;102414.97;;;24.92;43.63
59787;BME280;45672;51.612;5.536;2022-07-10T12:45:11;102409.88;;;25.09;44.18
59787;BME280;45672;51.612;5.536;2022-07-10T12:47:48;102416.81;;;24.99;44.06
59787;BME280;45672;51.612;5.536;2022-07-10T12:50:16;102406.44;;;24.62;44.12
59787;BME280;45672;51.612;5.536;2022-07-10T12:52:43;102408.31;;;24.61;44.21
59787;BME280;45672;51.612;5.536;2022-07-10T12:57:53;102403.06;;;24.60;44.31
59787;BME280;45672;51.612;5.536;2022-07-10T13:00:22;102398.63;;;24.86;43.66
59787;BME280;45672;51.612;5.536;2022-07-10T13:02:48;102394.84;;;24.93;43.26
59787;BME280;45672;51.612;5.536;2022-07-10T13:05:36;102393.75;;;25.08;43.59
59787;BME280;45672;51.612;5.536;2022-07-10T13:08:15;102396.94;;;24.91;43.81
59787;BME280;45672;51.612;5.536;2022-07-10T13:10:56;102399.06;;;24.89;43.79
59787;BME280;45672;51.612;5.536;2022-07-10T13:13:23;102396.97;;;24.85;44.12